createdAt,value
2018-05-25T00:00:20.769Z,17.30
2018-05-25T00:01:20.774Z,17.35
2018-05-25T00:02:20.766Z,17.35
2018-05-25T00:03:20.761Z,17.27
2018-05-25T00:04:20.763Z,17.35
2018-05-25T00:05:20.757Z,17.30
2018-05-25T00:06:20.757Z,17.30
2018-05-25T00:07:20.751Z,17.18
2018-05-25T00:08:20.750Z,17.24
2018-05-25T00:09:20.754Z,17.27
2018-05-25T00:10:20.749Z,17.18
2018-05-25T00:11:20.739Z,17.38
2018-05-25T00:12:20.735Z,17.46
2018-05-25T00:13:20.737Z,17.35
2018-05-25T00:14:20.733Z,17.36
2018-05-25T00:15:20.727Z,17.45
2018-05-25T00:16:20.730Z,17.40
2018-05-25T00:17:20.724Z,17.36
2018-05-25T00:18:20.719Z,17.36
2018-05-25T00:19:20.722Z,17.30
2018-05-25T00:20:20.715Z,17.28
2018-05-25T00:21:20.709Z,17.28
2018-05-25T00:22:20.708Z,17.30
2018-05-25T00:23:20.704Z,17.35
2018-05-25T00:24:20.709Z,17.35
2018-05-25T00:25:20.699Z,17.51
2018-05-25T00:26:20.697Z,17.47
2018-05-25T00:27:20.697Z,17.38
2018-05-25T00:28:20.691Z,17.39
2018-05-25T00:29:20.689Z,17.35
2018-05-25T00:30:20.691Z,17.30
2018-05-25T00:31:20.685Z,17.36
2018-05-25T00:32:20.677Z,17.39
2018-05-25T00:33:20.677Z,17.28
2018-05-25T00:34:20.675Z,17.27
2018-05-25T00:35:20.671Z,17.32
2018-05-25T00:36:20.668Z,17.25
2018-05-25T00:37:20.665Z,17.20
2018-05-25T00:38:20.666Z,17.09
2018-05-25T00:39:20.661Z,17.10
2018-05-25T00:40:20.654Z,17.10
2018-05-25T00:41:20.651Z,17.10
2018-05-25T00:42:20.652Z,17.02
2018-05-25T00:43:20.644Z,16.98
2018-05-25T00:44:20.640Z,16.96
2018-05-25T00:45:20.639Z,16.85
2018-05-25T00:46:20.638Z,16.92
2018-05-25T00:47:20.631Z,16.90
2018-05-25T00:48:20.635Z,16.91
2018-05-25T00:49:20.626Z,16.84
2018-05-25T00:50:20.673Z,16.85
2018-05-25T00:51:20.619Z,16.85
2018-05-25T00:52:20.617Z,16.84
2018-05-25T00:53:20.615Z,16.84
2018-05-25T00:54:20.613Z,16.72
2018-05-25T00:55:20.611Z,16.73
2018-05-25T00:56:20.604Z,16.80
2018-05-25T00:57:20.603Z,16.73
2018-05-25T00:58:20.599Z,16.65
2018-05-25T00:59:20.596Z,16.73
2018-05-25T01:00:20.596Z,16.54
2018-05-25T01:01:20.593Z,16.52
2018-05-25T01:02:20.587Z,16.54
2018-05-25T01:03:20.585Z,16.59
2018-05-25T01:04:20.580Z,16.52
2018-05-25T01:05:20.580Z,16.50
2018-05-25T01:06:20.578Z,16.51
2018-05-25T01:07:20.576Z,16.55
2018-05-25T01:08:20.565Z,16.50
2018-05-25T01:09:20.569Z,16.59
2018-05-25T01:10:20.562Z,16.52
2018-05-25T01:11:20.557Z,16.54
2018-05-25T01:12:20.561Z,16.59
2018-05-25T01:13:20.555Z,16.54
2018-05-25T01:14:20.547Z,16.59
2018-05-25T01:15:20.545Z,16.50
2018-05-25T01:16:20.546Z,16.52
2018-05-25T01:17:20.543Z,16.47
2018-05-25T01:18:20.536Z,16.59
2018-05-25T01:19:20.530Z,16.51
2018-05-25T01:20:20.528Z,16.48
2018-05-25T01:21:20.523Z,16.42
2018-05-25T01:22:20.520Z,16.47
2018-05-25T01:23:20.531Z,16.41
2018-05-25T01:24:20.513Z,16.33
2018-05-25T01:25:20.513Z,16.37
2018-05-25T01:26:20.512Z,16.36
2018-05-25T01:27:20.503Z,16.36
2018-05-25T01:28:20.499Z,16.34
2018-05-25T01:29:20.496Z,16.44
2018-05-25T01:30:20.512Z,16.26
2018-05-25T01:31:20.493Z,16.30
2018-05-25T01:32:20.486Z,16.27
2018-05-25T01:33:20.480Z,16.37
2018-05-25T01:34:20.480Z,16.40
2018-05-25T01:35:20.476Z,16.40
2018-05-25T01:36:20.476Z,16.37
2018-05-25T01:37:20.473Z,16.40
2018-05-25T01:38:20.465Z,16.27
2018-05-25T01:39:20.461Z,16.34
2018-05-25T01:40:20.459Z,16.22
2018-05-25T01:41:20.457Z,16.30
2018-05-25T01:42:20.451Z,16.29
2018-05-25T01:43:20.448Z,16.37
2018-05-25T01:44:20.442Z,16.41
2018-05-25T01:45:20.448Z,16.45
2018-05-25T01:46:20.437Z,16.45
2018-05-25T01:47:20.431Z,16.37
2018-05-25T01:48:20.431Z,16.42
2018-05-25T01:49:20.429Z,16.41
2018-05-25T01:50:20.424Z,16.30
2018-05-25T01:51:20.420Z,16.41
2018-05-25T01:52:20.415Z,16.40
2018-05-25T01:53:20.417Z,16.36
2018-05-25T01:54:20.408Z,16.37
2018-05-25T01:55:20.407Z,16.27
2018-05-25T01:56:20.399Z,16.27
2018-05-25T01:57:20.397Z,16.23
2018-05-25T01:58:20.398Z,16.25
2018-05-25T01:59:20.397Z,16.11
2018-05-25T02:00:20.384Z,16.17
2018-05-25T02:01:20.382Z,16.17
2018-05-25T02:02:20.379Z,16.08
2018-05-25T02:03:20.380Z,15.95
2018-05-25T02:04:20.371Z,15.92
2018-05-25T02:05:20.374Z,16.01
2018-05-25T02:06:20.363Z,15.92
2018-05-25T02:07:20.362Z,15.93
2018-05-25T02:08:20.354Z,15.92
2018-05-25T02:09:20.361Z,15.95
2018-05-25T02:10:20.351Z,15.88
2018-05-25T02:11:20.352Z,15.91
2018-05-25T02:12:20.342Z,15.89
2018-05-25T02:13:20.345Z,15.89
2018-05-25T02:14:20.338Z,15.80
2018-05-25T02:15:20.328Z,15.76
2018-05-25T02:16:20.325Z,15.81
2018-05-25T02:17:20.323Z,15.70
2018-05-25T02:18:20.317Z,15.71
2018-05-25T02:19:20.314Z,15.80
2018-05-25T02:20:20.310Z,15.66
2018-05-25T02:21:20.311Z,15.68
2018-05-25T02:22:20.308Z,15.67
2018-05-25T02:23:20.301Z,15.67
2018-05-25T02:24:20.296Z,15.59
2018-05-25T02:25:20.291Z,15.56
2018-05-25T02:26:20.288Z,15.56
2018-05-25T02:27:20.291Z,15.58
2018-05-25T02:28:20.278Z,15.64
2018-05-25T02:29:20.285Z,15.67
2018-05-25T02:30:20.277Z,15.62
2018-05-25T02:31:20.270Z,15.60
2018-05-25T02:32:20.264Z,15.60
2018-05-25T02:33:20.262Z,15.53
2018-05-25T02:34:20.264Z,15.51
2018-05-25T02:35:20.253Z,15.52
2018-05-25T02:36:20.250Z,15.56
2018-05-25T02:37:20.253Z,15.58
2018-05-25T02:38:20.246Z,15.43
2018-05-25T02:39:20.238Z,15.48
2018-05-25T02:40:20.232Z,15.46
2018-05-25T02:41:20.229Z,15.49
2018-05-25T02:42:20.229Z,15.58
2018-05-25T02:43:20.227Z,15.60
2018-05-25T02:44:20.218Z,15.62
2018-05-25T02:45:20.216Z,15.53
2018-05-25T02:46:20.210Z,15.60
2018-05-25T02:47:20.207Z,15.51
2018-05-25T02:48:20.204Z,15.55
2018-05-25T02:49:20.202Z,15.53
2018-05-25T02:50:20.194Z,15.53
2018-05-25T02:51:20.189Z,15.48
2018-05-25T02:52:20.186Z,15.55
2018-05-25T02:53:20.182Z,15.52
2018-05-25T02:54:20.182Z,15.59
2018-05-25T02:55:20.173Z,15.56
2018-05-25T02:56:20.180Z,15.60
2018-05-25T02:57:20.236Z,15.58
2018-05-25T02:58:20.161Z,15.55
2018-05-25T02:59:20.157Z,15.62
2018-05-25T03:00:20.153Z,15.53
2018-05-25T03:01:20.153Z,15.60
2018-05-25T03:02:20.149Z,15.55
2018-05-25T03:03:20.144Z,15.58
2018-05-25T03:04:20.145Z,15.48
2018-05-25T03:05:20.132Z,15.51
2018-05-25T03:06:20.133Z,15.46
2018-05-25T03:07:20.123Z,15.34
2018-05-25T03:08:20.120Z,15.37
2018-05-25T03:09:20.117Z,15.40
2018-05-25T03:10:20.117Z,15.43
2018-05-25T03:11:20.105Z,15.38
2018-05-25T03:12:20.111Z,15.40
2018-05-25T03:13:20.110Z,15.33
2018-05-25T03:14:20.098Z,15.43
2018-05-25T03:15:20.103Z,15.38
2018-05-25T03:16:20.086Z,15.48
2018-05-25T03:17:20.084Z,15.35
2018-05-25T03:18:20.083Z,15.41
2018-05-25T03:19:20.073Z,15.46
2018-05-25T03:20:20.069Z,15.48
2018-05-25T03:21:20.071Z,15.59
2018-05-25T03:22:20.062Z,15.55
2018-05-25T03:23:20.056Z,15.58
2018-05-25T03:24:20.054Z,15.56
2018-05-25T03:25:20.051Z,15.60
2018-05-25T03:26:20.045Z,15.55
2018-05-25T03:27:20.045Z,15.66
2018-05-25T03:28:20.038Z,15.59
2018-05-25T03:29:20.036Z,15.53
2018-05-25T03:30:20.029Z,15.41
2018-05-25T03:31:20.023Z,15.43
2018-05-25T03:32:20.018Z,15.38
2018-05-25T03:33:20.021Z,15.30
2018-05-25T03:34:20.010Z,15.28
2018-05-25T03:35:20.006Z,15.23
2018-05-25T03:36:20.002Z,15.12
2018-05-25T03:37:19.997Z,15.19
2018-05-25T03:38:19.995Z,15.27
2018-05-25T03:39:19.993Z,15.23
2018-05-25T03:40:19.993Z,15.37
2018-05-25T03:41:19.983Z,15.51
2018-05-25T03:42:19.976Z,15.49
2018-05-25T03:43:19.987Z,15.43
2018-05-25T03:44:19.968Z,15.34
2018-05-25T03:45:19.962Z,15.28
2018-05-25T03:46:19.960Z,15.22
2018-05-25T03:47:19.952Z,15.30
2018-05-25T03:48:19.951Z,15.25
2018-05-25T03:49:19.952Z,15.18
2018-05-25T03:50:19.943Z,15.19
2018-05-25T03:51:19.935Z,15.20
2018-05-25T03:52:19.934Z,15.15
2018-05-25T03:53:19.928Z,15.07
2018-05-25T03:54:19.924Z,15.13
2018-05-25T03:55:19.922Z,15.18
2018-05-25T03:56:19.922Z,15.15
2018-05-25T03:57:19.914Z,15.28
2018-05-25T03:58:19.917Z,15.37
2018-05-25T03:59:19.900Z,15.37
2018-05-25T04:00:19.897Z,15.34
2018-05-25T04:01:19.898Z,15.49
2018-05-25T04:02:19.890Z,15.51
2018-05-25T04:03:19.888Z,15.48
2018-05-25T04:04:19.879Z,15.46
2018-05-25T04:05:19.877Z,15.34
2018-05-25T04:06:19.873Z,15.46
2018-05-25T04:07:19.869Z,15.55
2018-05-25T04:08:19.870Z,15.49
2018-05-25T04:09:19.862Z,15.53
2018-05-25T04:10:19.855Z,15.60
2018-05-25T04:11:19.850Z,15.59
2018-05-25T04:12:19.852Z,15.55
2018-05-25T04:13:19.842Z,15.53
2018-05-25T04:14:19.863Z,15.55
2018-05-25T04:15:19.831Z,15.60
2018-05-25T04:16:19.831Z,15.59
2018-05-25T04:17:19.825Z,15.44
2018-05-25T04:18:19.823Z,15.56
2018-05-25T04:19:19.816Z,15.86
2018-05-25T04:20:19.816Z,16.36
2018-05-25T04:21:19.811Z,16.78
2018-05-25T04:22:19.804Z,17.35
2018-05-25T04:23:19.802Z,17.99
2018-05-25T04:24:19.800Z,18.60
2018-05-25T04:25:19.793Z,19.05
2018-05-25T04:26:19.794Z,19.58
2018-05-25T04:27:19.788Z,19.90
2018-05-25T04:28:19.785Z,20.38
2018-05-25T04:29:19.782Z,20.78
2018-05-25T04:30:19.780Z,21.08
2018-05-25T04:31:19.778Z,21.34
2018-05-25T04:32:19.778Z,21.55
2018-05-25T04:33:19.775Z,21.79
2018-05-25T04:34:19.780Z,21.93
2018-05-25T04:35:19.772Z,22.12
2018-05-25T04:36:19.772Z,22.44
2018-05-25T04:37:19.771Z,22.61
2018-05-25T04:38:19.771Z,22.79
2018-05-25T04:39:19.772Z,23.11
2018-05-25T04:40:19.774Z,23.16
2018-05-25T04:41:19.773Z,23.37
2018-05-25T04:42:19.777Z,23.49
2018-05-25T04:43:19.878Z,23.72
2018-05-25T04:44:19.778Z,23.86
2018-05-25T04:45:19.778Z,23.92
2018-05-25T04:46:19.780Z,24.09
2018-05-25T04:47:19.788Z,24.21
2018-05-25T04:48:19.788Z,24.29
2018-05-25T04:49:19.786Z,24.31
2018-05-25T04:50:19.790Z,24.49
2018-05-25T04:51:19.794Z,24.60
2018-05-25T04:52:19.820Z,24.64
2018-05-25T04:53:19.798Z,24.71
2018-05-25T04:54:19.803Z,24.89
2018-05-25T04:55:19.813Z,24.93
2018-05-25T04:56:19.817Z,24.99
2018-05-25T04:57:19.814Z,25.04
2018-05-25T04:58:19.866Z,25.09
2018-05-25T04:59:19.848Z,25.27
2018-05-25T05:00:19.830Z,25.24
2018-05-25T05:01:19.832Z,25.20
2018-05-25T05:02:19.843Z,25.17
2018-05-25T05:03:19.844Z,25.23
2018-05-25T05:04:19.850Z,25.26
2018-05-25T05:05:19.856Z,25.35
2018-05-25T05:06:19.858Z,25.34
2018-05-25T05:07:19.860Z,25.39
2018-05-25T05:08:19.863Z,25.38
2018-05-25T05:09:19.872Z,25.54
2018-05-25T05:10:19.874Z,25.53
2018-05-25T05:11:19.876Z,25.38
2018-05-25T05:12:19.891Z,25.45
2018-05-25T05:13:19.888Z,25.44
2018-05-25T05:14:19.893Z,25.39
2018-05-25T05:15:19.897Z,25.30
2018-05-25T05:16:19.894Z,25.04
2018-05-25T05:17:19.899Z,24.92
2018-05-25T05:19:02.378Z,24.31
2018-05-25T05:20:02.331Z,24.12
2018-05-25T05:21:02.344Z,23.77
2018-05-25T05:22:02.335Z,23.39
2018-05-25T05:23:02.375Z,23.26
2018-05-25T05:24:02.334Z,23.21
2018-05-25T05:25:02.337Z,23.01
2018-05-25T05:26:02.337Z,22.81
2018-05-25T05:27:02.349Z,22.75
2018-05-25T05:28:02.342Z,22.74
2018-05-25T05:29:02.344Z,22.57
2018-05-25T05:30:02.343Z,22.48
2018-05-25T05:31:02.352Z,22.44
2018-05-25T05:32:02.343Z,22.30
2018-05-25T05:33:02.346Z,22.17
2018-05-25T05:34:02.348Z,22.15
2018-05-25T05:35:02.354Z,22.02
2018-05-25T05:36:02.347Z,22.02
2018-05-25T05:37:02.350Z,22.05
2018-05-25T05:38:02.353Z,21.99
2018-05-25T05:39:02.352Z,21.96
2018-05-25T05:40:02.356Z,21.99
2018-05-25T05:41:02.356Z,21.86
2018-05-25T05:42:02.354Z,21.79
2018-05-25T05:43:02.354Z,21.68
2018-05-25T05:44:02.352Z,21.58
2018-05-25T05:45:02.351Z,21.31
2018-05-25T05:46:02.355Z,21.15
2018-05-25T05:47:02.354Z,21.05
2018-05-25T05:48:02.355Z,21.00
2018-05-25T05:49:02.354Z,21.03
2018-05-25T05:50:02.356Z,21.00
2018-05-25T05:51:02.364Z,21.26
2018-05-25T05:52:02.352Z,21.22
2018-05-25T05:53:02.350Z,21.30
2018-05-25T05:54:02.350Z,21.45
2018-05-25T05:55:02.356Z,21.59
2018-05-25T05:56:02.351Z,21.63
2018-05-25T05:57:02.350Z,21.68
2018-05-25T05:58:02.348Z,21.71
2018-05-25T05:59:02.355Z,21.74
2018-05-25T06:00:02.348Z,21.86
2018-05-25T06:01:02.354Z,21.91
2018-05-25T06:02:02.347Z,22.01
2018-05-25T06:03:02.348Z,21.96
2018-05-25T06:04:02.347Z,21.66
2018-05-25T06:05:02.347Z,21.37
2018-05-25T06:06:02.348Z,21.37
2018-05-25T06:07:02.349Z,21.42
2018-05-25T06:08:02.351Z,21.43
2018-05-25T06:09:02.351Z,21.26
2018-05-25T06:10:02.350Z,21.21
2018-05-25T06:11:02.352Z,21.24
2018-05-25T06:12:02.351Z,21.36
2018-05-25T06:13:02.347Z,21.40
2018-05-25T06:14:02.342Z,21.49
2018-05-25T06:15:02.350Z,21.52
2018-05-25T06:16:02.342Z,21.56
2018-05-25T06:17:02.344Z,21.58
2018-05-25T06:18:02.346Z,21.55
2018-05-25T06:19:02.341Z,21.16
2018-05-25T06:20:02.384Z,21.15
2018-05-25T06:21:02.338Z,21.15
2018-05-25T06:22:02.339Z,21.18
2018-05-25T06:23:02.338Z,21.16
2018-05-25T06:24:02.347Z,21.12
2018-05-25T06:25:02.342Z,21.24
2018-05-25T06:26:02.342Z,21.34
2018-05-25T06:27:02.342Z,21.33
2018-05-25T06:28:02.339Z,21.42
2018-05-25T06:29:02.341Z,21.18
2018-05-25T06:30:02.335Z,21.16
2018-05-25T06:31:02.339Z,21.16
2018-05-25T06:32:02.336Z,21.15
2018-05-25T06:33:02.341Z,21.22
2018-05-25T06:34:02.335Z,21.36
2018-05-25T06:35:02.335Z,21.51
2018-05-25T06:36:02.340Z,21.55
2018-05-25T06:37:02.332Z,21.56
2018-05-25T06:38:02.330Z,21.58
2018-05-25T06:39:02.334Z,21.75
2018-05-25T06:40:02.330Z,21.86
2018-05-25T06:41:02.331Z,22.02
2018-05-25T06:42:02.329Z,22.02
2018-05-25T06:43:02.327Z,22.05
2018-05-25T06:44:02.333Z,22.05
2018-05-25T06:45:02.334Z,22.09
2018-05-25T06:46:02.328Z,22.23
2018-05-25T06:47:02.327Z,21.91
2018-05-25T06:48:02.326Z,21.73
2018-05-25T06:49:02.331Z,21.67
2018-05-25T06:50:02.324Z,21.56
2018-05-25T06:51:02.324Z,21.67
2018-05-25T06:52:02.328Z,21.71
2018-05-25T06:53:02.327Z,21.86
2018-05-25T06:54:02.323Z,21.93
2018-05-25T06:55:02.323Z,21.99
2018-05-25T06:56:02.335Z,21.93
2018-05-25T06:57:02.325Z,21.89
2018-05-25T06:58:02.370Z,21.94
2018-05-25T06:59:02.325Z,21.90
2018-05-25T07:00:02.320Z,22.02
2018-05-25T07:01:02.319Z,22.17
2018-05-25T07:02:44.741Z,22.36
2018-05-25T07:03:44.741Z,22.45
2018-05-25T07:04:44.744Z,22.59
2018-05-25T07:05:44.744Z,22.67
2018-05-25T07:06:44.740Z,22.74
2018-05-25T07:07:44.738Z,22.81
2018-05-25T07:08:44.738Z,22.88
2018-05-25T07:09:44.737Z,23.00
2018-05-25T07:10:44.797Z,23.01
2018-05-25T07:11:44.746Z,23.11
2018-05-25T07:12:44.736Z,22.99
2018-05-25T07:13:44.737Z,22.64
2018-05-25T07:14:44.741Z,22.35
2018-05-25T07:15:44.737Z,22.30
2018-05-25T07:16:44.735Z,22.23
2018-05-25T07:17:44.738Z,22.14
2018-05-25T07:18:44.740Z,22.15
2018-05-25T07:19:44.735Z,22.41
2018-05-25T07:20:44.734Z,22.52
2018-05-25T07:21:44.743Z,22.69
2018-05-25T07:22:44.735Z,22.78
2018-05-25T07:23:44.735Z,22.99
2018-05-25T07:24:44.738Z,23.15
2018-05-25T07:25:44.739Z,23.29
2018-05-25T07:26:44.739Z,23.37
2018-05-25T07:27:44.735Z,23.35
2018-05-25T07:28:44.735Z,23.32
2018-05-25T07:29:44.734Z,23.38
2018-05-25T07:30:44.738Z,23.47
2018-05-25T07:31:44.738Z,23.45
2018-05-25T07:32:44.738Z,23.19
2018-05-25T07:33:44.736Z,23.21
2018-05-25T07:34:44.738Z,23.35
2018-05-25T07:35:44.735Z,23.50
2018-05-25T07:36:44.737Z,23.56
2018-05-25T07:37:44.735Z,23.60
2018-05-25T07:38:44.741Z,23.68
2018-05-25T07:39:44.735Z,23.60
2018-05-25T07:40:44.735Z,23.62
2018-05-25T07:41:44.737Z,23.68
2018-05-25T07:42:44.741Z,23.63
2018-05-25T07:43:44.739Z,23.67
2018-05-25T07:44:44.744Z,23.64
2018-05-25T07:45:44.738Z,23.59
2018-05-25T07:46:44.737Z,23.19
2018-05-25T07:47:44.737Z,23.25
2018-05-25T07:48:44.738Z,23.19
2018-05-25T07:49:44.740Z,23.25
2018-05-25T07:50:44.741Z,23.31
2018-05-25T07:51:44.747Z,23.52
2018-05-25T07:52:44.749Z,23.60
2018-05-25T07:53:44.739Z,23.75
2018-05-25T07:54:44.763Z,23.87
2018-05-25T07:55:44.755Z,23.86
2018-05-25T07:56:44.750Z,23.86
2018-05-25T07:57:44.751Z,24.02
2018-05-25T07:58:44.753Z,24.04
2018-05-25T07:59:44.746Z,24.00
2018-05-25T08:00:44.748Z,24.06
2018-05-25T08:01:44.756Z,24.06
2018-05-25T08:02:44.744Z,24.23
2018-05-25T08:03:44.744Z,24.29
2018-05-25T08:04:44.744Z,24.37
2018-05-25T08:05:44.749Z,24.42
2018-05-25T08:06:44.748Z,24.42
2018-05-25T08:07:44.748Z,24.59
2018-05-25T08:08:44.752Z,24.59
2018-05-25T08:09:44.758Z,24.74
2018-05-25T08:10:44.755Z,24.61
2018-05-25T08:11:44.755Z,24.44
2018-05-25T08:12:44.763Z,24.61
2018-05-25T08:13:44.752Z,24.70
2018-05-25T08:14:44.758Z,24.67
2018-05-25T08:15:44.755Z,24.77
2018-05-25T08:16:44.760Z,24.86
2018-05-25T08:17:44.757Z,24.89
2018-05-25T08:18:44.756Z,25.01
2018-05-25T08:19:44.767Z,24.92
2018-05-25T08:20:44.760Z,24.84
2018-05-25T08:21:44.805Z,24.89
2018-05-25T08:22:44.767Z,24.97
2018-05-25T08:23:44.763Z,25.05
2018-05-25T08:24:44.764Z,25.11
2018-05-25T08:25:44.764Z,25.22
2018-05-25T08:26:44.769Z,25.20
2018-05-25T08:27:44.773Z,25.29
2018-05-25T08:28:44.772Z,25.39
2018-05-25T08:29:44.768Z,25.20
2018-05-25T08:30:44.774Z,25.30
2018-05-25T08:31:44.772Z,25.34
2018-05-25T08:32:44.784Z,25.41
2018-05-25T08:33:44.774Z,25.36
2018-05-25T08:34:44.780Z,25.30
2018-05-25T08:35:44.784Z,25.24
2018-05-25T08:36:44.780Z,25.17
2018-05-25T08:37:44.781Z,25.09
2018-05-25T08:38:44.784Z,25.24
2018-05-25T08:39:44.792Z,25.26
2018-05-25T08:40:44.792Z,25.23
2018-05-25T08:41:44.792Z,25.38
2018-05-25T08:42:44.794Z,25.49
2018-05-25T08:43:44.802Z,25.54
2018-05-25T08:44:44.791Z,25.60
2018-05-25T08:45:44.794Z,25.72
2018-05-25T08:46:44.797Z,25.71
2018-05-25T08:47:44.806Z,25.72
2018-05-25T08:48:44.803Z,25.75
2018-05-25T08:49:44.801Z,25.59
2018-05-25T08:50:44.807Z,25.57
2018-05-25T08:51:44.804Z,25.71
2018-05-25T08:52:44.815Z,25.75
2018-05-25T08:53:44.808Z,25.79
2018-05-25T08:54:44.814Z,25.94
2018-05-25T08:55:44.812Z,25.94
2018-05-25T08:56:44.811Z,25.82
2018-05-25T08:57:44.826Z,25.85
2018-05-25T08:58:44.817Z,26.00
2018-05-25T08:59:44.824Z,25.94
2018-05-25T09:00:44.818Z,25.94
2018-05-25T09:01:44.826Z,25.97
2018-05-25T09:02:44.824Z,26.08
2018-05-25T09:03:44.840Z,26.17
2018-05-25T09:04:44.827Z,26.16
2018-05-25T09:05:44.831Z,26.23
2018-05-25T09:06:44.840Z,26.32
2018-05-25T09:07:44.838Z,26.31
2018-05-25T09:08:44.837Z,26.32
2018-05-25T09:09:44.845Z,26.44
2018-05-25T09:10:44.843Z,26.36
2018-05-25T09:11:44.841Z,26.42
2018-05-25T09:12:44.848Z,26.39
2018-05-25T09:13:44.847Z,26.39
2018-05-25T09:14:44.853Z,26.39
2018-05-25T09:15:44.851Z,26.36
2018-05-25T09:16:44.852Z,26.44
2018-05-25T09:17:44.857Z,26.29
2018-05-25T09:18:44.857Z,26.31
2018-05-25T09:19:44.860Z,26.28
2018-05-25T09:20:44.867Z,26.36
2018-05-25T09:21:44.963Z,26.41
2018-05-25T09:22:44.872Z,26.28
2018-05-25T09:23:44.871Z,26.34
2018-05-25T09:24:44.879Z,26.38
2018-05-25T09:25:44.875Z,26.50
2018-05-25T09:26:44.877Z,26.50
2018-05-25T09:27:44.884Z,26.51
2018-05-25T09:28:44.887Z,26.59
2018-05-25T09:29:44.885Z,26.60
2018-05-25T09:30:44.887Z,26.68
2018-05-25T09:31:44.887Z,26.64
2018-05-25T09:32:44.890Z,26.75
2018-05-25T09:33:44.900Z,26.88
2018-05-25T09:34:44.900Z,26.83
2018-05-25T09:35:44.899Z,26.96
2018-05-25T09:36:44.905Z,26.94
2018-05-25T09:37:44.903Z,27.01
2018-05-25T09:38:44.909Z,27.01
2018-05-25T09:39:44.912Z,27.02
2018-05-25T09:40:44.911Z,26.98
2018-05-25T09:41:44.914Z,27.02
2018-05-25T09:42:44.921Z,26.98
2018-05-25T09:43:44.920Z,27.08
2018-05-25T09:44:44.924Z,27.27
2018-05-25T09:45:44.925Z,27.27
2018-05-25T09:46:44.930Z,27.28
2018-05-25T09:47:44.932Z,27.30
2018-05-25T09:48:44.938Z,27.30
2018-05-25T09:49:44.941Z,27.33
2018-05-25T09:50:44.941Z,27.24
2018-05-25T09:51:44.948Z,27.33
2018-05-25T09:52:44.946Z,27.33
2018-05-25T09:53:44.950Z,27.33
2018-05-25T09:54:44.958Z,27.42
2018-05-25T09:55:44.958Z,27.43
2018-05-25T09:56:44.961Z,27.38
2018-05-25T09:57:44.965Z,27.66
2018-05-25T09:58:44.965Z,27.76
2018-05-25T09:59:44.965Z,27.65
2018-05-25T10:00:44.973Z,27.87
2018-05-25T10:01:44.977Z,27.90
2018-05-25T10:02:44.975Z,28.01
2018-05-25T10:03:44.979Z,27.91
2018-05-25T10:04:44.982Z,28.02
2018-05-25T10:05:44.984Z,27.93
2018-05-25T10:06:44.993Z,27.99
2018-05-25T10:07:44.991Z,27.99
2018-05-25T10:08:44.995Z,27.86
2018-05-25T10:09:44.996Z,27.88
2018-05-25T10:10:44.999Z,27.83
2018-05-25T10:11:45.005Z,27.71
2018-05-25T10:12:45.009Z,27.69
2018-05-25T10:13:45.009Z,27.69
2018-05-25T10:14:45.017Z,27.74
2018-05-25T10:15:45.016Z,27.65
2018-05-25T10:16:45.027Z,27.66
2018-05-25T10:17:45.021Z,27.77
2018-05-25T10:18:45.028Z,27.63
2018-05-25T10:19:45.032Z,27.72
2018-05-25T10:20:45.032Z,27.78
2018-05-25T10:21:45.036Z,27.72
2018-05-25T10:22:45.040Z,27.42
2018-05-25T10:23:45.448Z,27.28
2018-05-25T10:24:45.045Z,27.08
2018-05-25T10:25:49.091Z,26.76
2018-05-25T10:27:37.495Z,26.90
2018-05-25T10:28:37.499Z,26.76
2018-05-25T10:29:37.503Z,26.49
2018-05-25T10:30:37.508Z,26.34
2018-05-25T10:31:37.504Z,26.01
2018-05-25T10:32:37.507Z,26.11
2018-05-25T10:33:37.511Z,26.00
2018-05-25T10:34:37.515Z,25.82
2018-05-25T10:35:37.535Z,25.91
2018-05-25T10:36:37.520Z,25.74
2018-05-25T10:37:37.520Z,25.86
2018-05-25T10:38:37.524Z,26.03
2018-05-25T10:39:37.530Z,26.00
2018-05-25T10:40:37.532Z,26.11
2018-05-25T10:41:37.531Z,26.31
2018-05-25T10:42:37.533Z,26.51
2018-05-25T10:43:37.536Z,26.35
2018-05-25T10:44:37.537Z,26.49
2018-05-25T10:45:37.571Z,26.60
2018-05-25T10:46:37.546Z,26.78
2018-05-25T10:47:37.546Z,26.97
2018-05-25T10:48:37.549Z,27.05
2018-05-25T10:49:37.554Z,26.97
2018-05-25T10:50:37.556Z,26.86
2018-05-25T10:51:37.554Z,26.79
2018-05-25T10:52:37.556Z,26.75
2018-05-25T10:53:37.558Z,26.64
2018-05-25T10:54:37.565Z,26.72
2018-05-25T10:55:37.568Z,26.86
2018-05-25T10:56:37.574Z,26.96
2018-05-25T10:57:37.571Z,27.01
2018-05-25T10:58:37.572Z,27.01
2018-05-25T10:59:37.577Z,26.96
2018-05-25T11:00:37.578Z,27.11
2018-05-25T11:01:37.587Z,27.11
2018-05-25T11:02:37.577Z,27.18
2018-05-25T11:03:37.594Z,27.12
2018-05-25T11:04:37.586Z,27.23
2018-05-25T11:05:37.586Z,27.20
2018-05-25T11:06:37.591Z,27.21
2018-05-25T11:07:37.600Z,27.27
2018-05-25T11:08:37.596Z,27.38
2018-05-25T11:09:37.604Z,27.39
2018-05-25T11:10:37.601Z,27.40
2018-05-25T11:11:37.602Z,27.53
2018-05-25T11:12:37.608Z,27.63
2018-05-25T11:13:37.608Z,27.39
2018-05-25T11:14:37.612Z,27.48
2018-05-25T11:15:37.618Z,27.48
2018-05-25T11:16:37.634Z,27.43
2018-05-25T11:17:37.625Z,27.30
2018-05-25T11:18:37.625Z,27.02
2018-05-25T11:19:37.644Z,27.11
2018-05-25T11:20:37.634Z,27.21
2018-05-25T11:21:37.637Z,27.16
2018-05-25T11:22:37.634Z,26.94
2018-05-25T11:23:37.644Z,27.02
2018-05-25T11:24:37.641Z,27.09
2018-05-25T11:25:37.645Z,27.15
2018-05-25T11:26:37.653Z,27.24
2018-05-25T11:27:37.649Z,27.31
2018-05-25T11:28:37.662Z,27.06
2018-05-25T11:29:37.657Z,27.05
2018-05-25T11:30:37.660Z,27.20
2018-05-25T11:31:37.667Z,27.31
2018-05-25T11:32:37.663Z,27.46
2018-05-25T11:33:37.672Z,27.58
2018-05-25T11:34:37.675Z,27.76
2018-05-25T11:35:37.682Z,27.88
2018-05-25T11:36:37.681Z,27.98
2018-05-25T11:37:37.695Z,28.06
2018-05-25T11:38:37.680Z,27.99
2018-05-25T11:39:37.688Z,28.09
2018-05-25T11:40:37.686Z,28.06
2018-05-25T11:41:37.694Z,28.15
2018-05-25T11:42:37.693Z,28.11
2018-05-25T11:43:37.696Z,28.09
2018-05-25T11:44:37.704Z,28.17
2018-05-25T11:45:37.706Z,28.25
2018-05-25T11:46:37.704Z,28.32
2018-05-25T11:47:37.714Z,28.32
2018-05-25T11:48:37.714Z,28.33
2018-05-25T11:49:37.715Z,28.38
2018-05-25T11:50:37.717Z,28.30
2018-05-25T11:51:37.727Z,28.33
2018-05-25T11:52:37.731Z,28.42
2018-05-25T11:53:37.734Z,28.38
2018-05-25T11:54:37.732Z,28.40
2018-05-25T11:55:37.738Z,28.51
2018-05-25T11:56:37.740Z,28.69
2018-05-25T11:57:37.747Z,28.77
2018-05-25T11:58:37.745Z,28.77
2018-05-25T11:59:37.759Z,28.76
2018-05-25T12:00:37.755Z,28.82
2018-05-25T12:01:37.755Z,28.72
2018-05-25T12:02:37.763Z,28.88
2018-05-25T12:03:37.763Z,28.88
2018-05-25T12:04:37.773Z,28.94
2018-05-25T12:05:37.775Z,28.98
2018-05-25T12:06:37.802Z,29.03
2018-05-25T12:07:37.783Z,29.07
2018-05-25T12:08:37.783Z,29.12
2018-05-25T12:09:37.785Z,29.02
2018-05-25T12:10:37.789Z,28.95
2018-05-25T12:11:37.795Z,28.77
2018-05-25T12:12:37.805Z,29.02
2018-05-25T12:13:37.802Z,29.07
2018-05-25T12:14:37.806Z,28.97
2018-05-25T12:15:37.811Z,28.95
2018-05-25T12:16:37.818Z,28.82
2018-05-25T12:17:37.824Z,28.87
2018-05-25T12:18:37.823Z,28.76
2018-05-25T12:19:37.829Z,28.80
2018-05-25T12:20:37.828Z,28.55
2018-05-25T12:21:37.831Z,28.48
2018-05-25T12:22:37.840Z,28.51
2018-05-25T12:23:37.839Z,28.51
2018-05-25T12:24:37.847Z,28.51
2018-05-25T12:25:37.847Z,28.55
2018-05-25T12:26:37.853Z,28.61
2018-05-25T12:27:37.854Z,28.57
2018-05-25T12:28:37.866Z,28.57
2018-05-25T12:29:37.861Z,28.45
2018-05-25T12:30:37.867Z,28.48
2018-05-25T12:31:37.869Z,28.57
2018-05-25T12:32:37.882Z,28.64
2018-05-25T12:33:37.877Z,28.55
2018-05-25T12:34:37.881Z,28.57
2018-05-25T12:35:37.885Z,28.65
2018-05-25T12:36:37.888Z,28.82
2018-05-25T12:37:37.892Z,28.57
2018-05-25T12:38:37.897Z,28.48
2018-05-25T12:39:37.901Z,28.55
2018-05-25T12:40:37.927Z,28.58
2018-05-25T12:41:37.909Z,28.57
2018-05-25T12:42:37.912Z,28.64
2018-05-25T12:43:37.916Z,28.55
2018-05-25T12:44:37.920Z,28.60
2018-05-25T12:45:37.927Z,28.57
2018-05-25T12:46:37.929Z,28.70
2018-05-25T12:47:37.935Z,28.76
2018-05-25T12:54:40.254Z,28.42
2018-05-25T12:55:40.252Z,28.35
2018-05-25T12:56:40.266Z,28.48
2018-05-25T12:57:40.259Z,28.23
2018-05-25T12:58:40.268Z,28.08
2018-05-25T12:59:40.266Z,27.99
2018-05-25T13:00:40.266Z,27.95